sensor_id;sensor_type;location;lat;lon;timestamp;pressure;altitude;pressure_sealevel;temperature;humidity
69848;BME280;57143;55.940;37.496;2024-03-02T00:01:17;100763.22;;;2.81;100.00
69848;BME280;57143;55.940;37.496;2024-03-02T00:03:44;100777.31;;;2.92;100.00
69848;BME280;57143;55.940;37.496;2024-03-02T00:06:11;100769.84;;;2.86;100.00
69848;BME280;57143;55.940;37.496;2024-03-02T00:08:39;100772.38;;;2.88;100.00
69848;BME280;57143;55.940;37.496;2024-03-02T00:11:07;100774.22;;;2.87;100.00
69848;BME280;57143;55.940;37.496;2024-03-02T00:13:36;100755.34;;;2.79;100.00
69848;BME280;57143;55.940;37.496;2024-03-02T00:16:05;100771.53;;;2.87;100.00
69848;BME280;57143;55.940;37.496;2024-03-02T00:18:35;100754.63;;;2.77;100.00
69848;BME280;57143;55.940;37.496;2024-03-02T00:21:06;100769.16;;;2.84;100.00
69848;BME280;57143;55.940;37.496;2024-03-02T00:23:36;100773.66;;;2.84;100.00
69848;BME280;57143;55.940;37.496;2024-03-02T00:26:05;100732.81;;;2.63;100.00
69848;BME280;57143;55.940;37.496;2024-03-02T00:28:35;100753.63;;;2.78;100.00
69848;BME280;57143;55.940;37.496;2024-03-02T00:31:04;100764.34;;;2.78;100.00
69848;BME280;57143;55.940;37.496;2024-03-02T00:33:35;100762.81;;;2.76;100.00
69848;BME280;57143;55.940;37.496;2024-03-02T00:36:03;100762.53;;;2.79;100.00
69848;BME280;57143;55.940;37.496;2024-03-02T00:38:31;100760.56;;;2.81;100.00
69848;BME280;57143;55.940;37.496;2024-03-02T00:41:06;100753.22;;;2.73;100.00
69848;BME280;57143;55.940;37.496;2024-03-02T00:43:42;100744.22;;;2.55;100.00
69848;BME280;57143;55.940;37.496;2024-03-02T00:46:16;100749.16;;;2.69;100.00
69848;BME280;57143;55.940;37.496;2024-03-02T00:48:55;100746.91;;;2.74;100.00
69848;BME280;57143;55.940;37.496;2024-03-02T00:51:26;100771.69;;;2.86;100.00
69848;BME280;57143;55.940;37.496;2024-03-02T00:53:55;100769.72;;;2.88;100.00
69848;BME280;57143;55.940;37.496;2024-03-02T00:56:23;100757.72;;;2.73;100.00
69848;BME280;57143;55.940;37.496;2024-03-02T00:58:51;100749.56;;;2.65;100.00
69848;BME280;57143;55.940;37.496;2024-03-02T01:01:19;100770.28;;;2.72;100.00
69848;BME280;57143;55.940;37.496;2024-03-02T01:03:47;100782.13;;;2.79;100.00
69848;BME280;57143;55.940;37.496;2024-03-02T01:06:16;100778.47;;;2.71;100.00
69848;BME280;57143;55.940;37.496;2024-03-02T01:08:44;100778.72;;;2.77;100.00
69848;BME280;57143;55.940;37.496;2024-03-02T01:11:12;100771.81;;;2.65;100.00
69848;BME280;57143;55.940;37.496;2024-03-02T01:13:39;100780.81;;;2.83;100.00
69848;BME280;57143;55.940;37.496;2024-03-02T01:16:07;100791.53;;;2.74;100.00
69848;BME280;57143;55.940;37.496;2024-03-02T01:18:34;100794.06;;;2.75;100.00
69848;BME280;57143;55.940;37.496;2024-03-02T01:21:02;100775.63;;;2.72;100.00
69848;BME280;57143;55.940;37.496;2024-03-02T01:23:31;100788.28;;;2.80;100.00
69848;BME280;57143;55.940;37.496;2024-03-02T01:26:01;100790.13;;;2.89;100.00
69848;BME280;57143;55.940;37.496;2024-03-02T01:28:28;100793.66;;;2.89;100.00
69848;BME280;57143;55.940;37.496;2024-03-02T01:30:56;100796.19;;;2.91;100.00
69848;BME280;57143;55.940;37.496;2024-03-02T01:33:24;100800.13;;;2.87;100.00
69848;BME280;57143;55.940;37.496;2024-03-02T01:35:51;100781.38;;;2.68;100.00
69848;BME280;57143;55.940;37.496;2024-03-02T01:38:19;100784.22;;;2.76;100.00
69848;BME280;57143;55.940;37.496;2024-03-02T01:40:47;100767.72;;;2.61;100.00
69848;BME280;57143;55.940;37.496;2024-03-02T01:43:15;100788.44;;;2.78;100.00
69848;BME280;57143;55.940;37.496;2024-03-02T01:45:42;100788.44;;;2.78;100.00
69848;BME280;57143;55.940;37.496;2024-03-02T01:48:10;100781.25;;;2.79;100.00
69848;BME280;57143;55.940;37.496;2024-03-02T01:50:37;100771.69;;;2.67;100.00
69848;BME280;57143;55.940;37.496;2024-03-02T01:53:04;100788.28;;;2.80;100.00
69848;BME280;57143;55.940;37.496;2024-03-02T01:55:32;100785.47;;;2.72;100.00
69848;BME280;57143;55.940;37.496;2024-03-02T01:58:02;100777.31;;;2.83;100.00
69848;BME280;57143;55.940;37.496;2024-03-02T02:00:29;100765.91;;;2.71;100.00
69848;BME280;57143;55.940;37.496;2024-03-02T02:02:58;100783.91;;;2.88;100.00
69848;BME280;57143;55.940;37.496;2024-03-02T02:05:25;100789.00;;;2.91;100.00
69848;BME280;57143;55.940;37.496;2024-03-02T02:07:53;100736.78;;;2.59;100.00
69848;BME280;57143;55.940;37.496;2024-03-02T02:10:20;100754.22;;;2.72;100.00
69848;BME280;57143;55.940;37.496;2024-03-02T02:12:47;100795.78;;;2.86;100.00
69848;BME280;57143;55.940;37.496;2024-03-02T02:15:26;100792.09;;;2.87;100.00
69848;BME280;57143;55.940;37.496;2024-03-02T02:17:54;100792.50;;;2.92;100.00
69848;BME280;57143;55.940;37.496;2024-03-02T02:20:41;100796.59;;;2.96;100.00
69848;BME280;57143;55.940;37.496;2024-03-02T02:23:10;100770.25;;;2.82;100.00
69848;BME280;57143;55.940;37.496;2024-03-02T02:25:39;100795.06;;;2.93;100.00
69848;BME280;57143;55.940;37.496;2024-03-02T02:28:06;100763.22;;;2.71;100.00
69848;BME280;57143;55.940;37.496;2024-03-02T02:30:34;100805.34;;;2.88;100.00
69848;BME280;57143;55.940;37.496;2024-03-02T02:33:01;100806.06;;;2.81;100.00
69848;BME280;57143;55.940;37.496;2024-03-02T02:35:28;100812.94;;;2.83;100.00
69848;BME280;57143;55.940;37.496;2024-03-02T02:37:57;100775.75;;;2.61;100.00
69848;BME280;57143;55.940;37.496;2024-03-02T02:40:26;100820.56;;;2.78;100.00
69848;BME280;57143;55.940;37.496;2024-03-02T02:42:55;100819.28;;;2.73;100.00
69848;BME280;57143;55.940;37.496;2024-03-02T02:45:22;100801.69;;;2.51;100.00
69848;BME280;57143;55.940;37.496;2024-03-02T02:47:50;100816.63;;;2.54;100.00
69848;BME280;57143;55.940;37.496;2024-03-02T02:50:17;100787.28;;;2.33;100.00
69848;BME280;57143;55.940;37.496;2024-03-02T02:52:44;100809.41;;;2.45;100.00
69848;BME280;57143;55.940;37.496;2024-03-02T02:55:13;100807.44;;;2.37;100.00
69848;BME280;57143;55.940;37.496;2024-03-02T02:57:43;100779.69;;;2.28;100.00
69848;BME280;57143;55.940;37.496;2024-03-02T03:00:12;100799.44;;;2.47;100.00
69848;BME280;57143;55.940;37.496;2024-03-02T03:02:42;100801.69;;;2.51;100.00
69848;BME280;57143;55.940;37.496;2024-03-02T03:05:10;100804.63;;;2.48;100.00
69848;BME280;57143;55.940;37.496;2024-03-02T03:07:39;100777.16;;;2.27;100.00
69848;BME280;57143;55.940;37.496;2024-03-02T03:10:07;100777.69;;;2.11;100.00
69848;BME280;57143;55.940;37.496;2024-03-02T03:12:35;100786.41;;;2.23;100.00
69848;BME280;57143;55.940;37.496;2024-03-02T03:15:05;100799.53;;;2.26;100.00
69848;BME280;57143;55.940;37.496;2024-03-02T03:17:34;100798.13;;;2.22;100.00
69848;BME280;57143;55.940;37.496;2024-03-02T03:20:03;100791.09;;;2.30;100.00
69848;BME280;57143;55.940;37.496;2024-03-02T03:22:31;100802.34;;;2.34;100.00
69848;BME280;57143;55.940;37.496;2024-03-02T03:24:59;100804.75;;;2.37;100.00
69848;BME280;57143;55.940;37.496;2024-03-02T03:27:26;100787.00;;;2.17;100.00
69848;BME280;57143;55.940;37.496;2024-03-02T03:29:54;100787.84;;;2.36;100.00
69848;BME280;57143;55.940;37.496;2024-03-02T03:32:22;100787.16;;;2.34;100.00
69848;BME280;57143;55.940;37.496;2024-03-02T03:34:50;100802.78;;;2.39;100.00
69848;BME280;57143;55.940;37.496;2024-03-02T03:37:17;100798.28;;;2.40;100.00
69848;BME280;57143;55.940;37.496;2024-03-02T03:39:45;100788.56;;;2.29;100.00
69848;BME280;57143;55.940;37.496;2024-03-02T03:42:12;100802.78;;;2.39;100.00
69848;BME280;57143;55.940;37.496;2024-03-02T03:44:40;100799.13;;;2.40;100.00
69848;BME280;57143;55.940;37.496;2024-03-02T03:47:07;100797.00;;;2.34;100.00
69848;BME280;57143;55.940;37.496;2024-03-02T03:49:36;100795.88;;;2.36;100.00
69848;BME280;57143;55.940;37.496;2024-03-02T03:52:04;100800.66;;;2.33;100.00
69848;BME280;57143;55.940;37.496;2024-03-02T03:54:31;100766.31;;;2.19;100.00
69848;BME280;57143;55.940;37.496;2024-03-02T03:56:58;100785.16;;;2.27;100.00
69848;BME280;57143;55.940;37.496;2024-03-02T03:59:26;100775.88;;;2.21;100.00
69848;BME280;57143;55.940;37.496;2024-03-02T04:01:56;100797.97;;;2.23;100.00
69848;BME280;57143;55.940;37.496;2024-03-02T04:04:23;100796.97;;;2.24;100.00
69848;BME280;57143;55.940;37.496;2024-03-02T04:06:52;100780.34;;;2.21;100.00
69848;BME280;57143;55.940;37.496;2024-03-02T04:09:20;100756.44;;;2.10;100.00
69848;BME280;57143;55.940;37.496;2024-03-02T04:11:47;100776.44;;;2.25;100.00
69848;BME280;57143;55.940;37.496;2024-03-02T04:14:14;100799.13;;;2.30;100.00
69848;BME280;57143;55.940;37.496;2024-03-02T04:16:42;100795.00;;;2.26;100.00
69848;BME280;57143;55.940;37.496;2024-03-02T04:19:09;100791.19;;;2.19;100.00
69848;BME280;57143;55.940;37.496;2024-03-02T04:21:36;100791.72;;;1.94;100.00
69848;BME280;57143;55.940;37.496;2024-03-02T04:24:07;100800.16;;;1.99;100.00
69848;BME280;57143;55.940;37.496;2024-03-02T04:26:34;100766.50;;;1.87;100.00
69848;BME280;57143;55.940;37.496;2024-03-02T04:29:02;100793.28;;;2.06;100.00
69848;BME280;57143;55.940;37.496;2024-03-02T04:31:29;100789.38;;;2.10;100.00
69848;BME280;57143;55.940;37.496;2024-03-02T04:33:56;100781.59;;;2.07;100.00
69848;BME280;57143;55.940;37.496;2024-03-02T04:36:24;100789.75;;;2.06;100.00
69848;BME280;57143;55.940;37.496;2024-03-02T04:38:51;100792.00;;;1.91;100.00
69848;BME280;57143;55.940;37.496;2024-03-02T04:41:20;100801.84;;;2.00;100.00
69848;BME280;57143;55.940;37.496;2024-03-02T04:43:47;100800.03;;;2.01;100.00
69848;BME280;57143;55.940;37.496;2024-03-02T04:46:15;100780.88;;;1.96;100.00
69848;BME280;57143;55.940;37.496;2024-03-02T04:48:43;100772.13;;;1.94;100.00
69848;BME280;57143;55.940;37.496;2024-03-02T04:51:10;100787.50;;;2.01;100.00
69848;BME280;57143;55.940;37.496;2024-03-02T04:53:37;100805.03;;;1.85;100.00
69848;BME280;57143;55.940;37.496;2024-03-02T04:56:05;100804.34;;;1.92;100.00
69848;BME280;57143;55.940;37.496;2024-03-02T04:59:07;100784.94;;;1.90;100.00
69848;BME280;57143;55.940;37.496;2024-03-02T05:01:34;100812.16;;;2.05;100.00
69848;BME280;57143;55.940;37.496;2024-03-02T05:04:02;100803.13;;;1.96;100.00
69848;BME280;57143;55.940;37.496;2024-03-02T05:06:29;100757.84;;;1.65;100.00
69848;BME280;57143;55.940;37.496;2024-03-02T05:08:56;100810.13;;;1.97;100.00
69848;BME280;57143;55.940;37.496;2024-03-02T05:11:24;100820.03;;;2.06;100.00
69848;BME280;57143;55.940;37.496;2024-03-02T05:14:10;100820.03;;;2.06;100.00
69848;BME280;57143;55.940;37.496;2024-03-02T05:16:37;100792.09;;;1.90;100.00
69848;BME280;57143;55.940;37.496;2024-03-02T05:19:06;100819.59;;;2.11;100.00
69848;BME280;57143;55.940;37.496;2024-03-02T05:21:33;100790.75;;;2.05;100.00
69848;BME280;57143;55.940;37.496;2024-03-02T05:24:01;100797.22;;;2.02;100.00
69848;BME280;57143;55.940;37.496;2024-03-02T05:26:28;100814.97;;;2.03;100.00
69848;BME280;57143;55.940;37.496;2024-03-02T05:28:56;100814.69;;;2.06;100.00
69848;BME280;57143;55.940;37.496;2024-03-02T05:31:25;100810.03;;;2.08;100.00
69848;BME280;57143;55.940;37.496;2024-03-02T05:33:52;100794.97;;;1.98;100.00
69848;BME280;57143;55.940;37.496;2024-03-02T05:36:19;100815.09;;;2.02;100.00
69848;BME280;57143;55.940;37.496;2024-03-02T05:38:47;100794.25;;;2.05;100.00
69848;BME280;57143;55.940;37.496;2024-03-02T05:41:15;100803.00;;;2.07;100.00
69848;BME280;57143;55.940;37.496;2024-03-02T05:43:42;100804.84;;;2.16;100.00
69848;BME280;57143;55.940;37.496;2024-03-02T05:46:09;100813.28;;;2.12;100.00
69848;BME280;57143;55.940;37.496;2024-03-02T05:48:39;100778.06;;;1.97;100.00
69848;BME280;57143;55.940;37.496;2024-03-02T05:51:06;100752.00;;;1.80;100.00
69848;BME280;57143;55.940;37.496;2024-03-02T05:53:33;100821.56;;;2.09;100.00
69848;BME280;57143;55.940;37.496;2024-03-02T05:56:04;100829.00;;;1.96;100.00
69848;BME280;57143;55.940;37.496;2024-03-02T05:58:32;100817.88;;;2.00;100.00
69848;BME280;57143;55.940;37.496;2024-03-02T06:01:12;100817.31;;;1.97;100.00
69848;BME280;57143;55.940;37.496;2024-03-02T06:03:40;100823.81;;;2.04;100.00
69848;BME280;57143;55.940;37.496;2024-03-02T06:06:08;100818.22;;;2.07;100.00
69848;BME280;57143;55.940;37.496;2024-03-02T06:08:35;100818.78;;;2.10;100.00
69848;BME280;57143;55.940;37.496;2024-03-02T06:11:03;100817.63;;;2.03;100.00
69848;BME280;57143;55.940;37.496;2024-03-02T06:13:30;100823.13;;;2.11;100.00
69848;BME280;57143;55.940;37.496;2024-03-02T06:15:58;100806.38;;;2.00;100.00
69848;BME280;57143;55.940;37.496;2024-03-02T06:18:25;100818.22;;;2.07;100.00
69848;BME280;57143;55.940;37.496;2024-03-02T06:20:55;100817.94;;;2.10;100.00
69848;BME280;57143;55.940;37.496;2024-03-02T06:23:22;100810.28;;;2.05;100.00
69848;BME280;57143;55.940;37.496;2024-03-02T06:25:50;100801.84;;;2.00;100.00
69848;BME280;57143;55.940;37.496;2024-03-02T06:28:18;100822.13;;;2.12;100.00
69848;BME280;57143;55.940;37.496;2024-03-02T06:30:46;100824.72;;;2.14;100.00
69848;BME280;57143;55.940;37.496;2024-03-02T06:33:13;100820.47;;;2.11;100.00
69848;BME280;57143;55.940;37.496;2024-03-02T06:35:40;100833.28;;;2.17;100.00
69848;BME280;57143;55.940;37.496;2024-03-02T06:38:09;100836.22;;;2.14;100.00
69848;BME280;57143;55.940;37.496;2024-03-02T06:40:35;100824.00;;;2.12;100.00
69848;BME280;57143;55.940;37.496;2024-03-02T06:43:04;100831.31;;;2.19;100.00
69848;BME280;57143;55.940;37.496;2024-03-02T06:45:31;100817.06;;;2.09;100.00
69848;BME280;57143;55.940;37.496;2024-03-02T06:48:00;100835.41;;;2.23;100.00
69848;BME280;57143;55.940;37.496;2024-03-02T06:50:27;100828.50;;;2.21;100.00
69848;BME280;57143;55.940;37.496;2024-03-02T06:52:54;100837.66;;;2.28;100.00
69848;BME280;57143;55.940;37.496;2024-03-02T06:55:24;100843.28;;;2.25;100.00
69848;BME280;57143;55.940;37.496;2024-03-02T06:57:52;100836.84;;;2.27;100.00
69848;BME280;57143;55.940;37.496;2024-03-02T07:00:19;100824.88;;;2.31;100.00
69848;BME280;57143;55.940;37.496;2024-03-02T07:02:47;100841.81;;;2.42;100.00
69848;BME280;57143;55.940;37.496;2024-03-02T07:05:14;100826.72;;;2.31;100.00
69848;BME280;57143;55.940;37.496;2024-03-02T07:07:42;100835.41;;;2.33;100.00
69848;BME280;57143;55.940;37.496;2024-03-02T07:10:09;100818.94;;;2.28;100.00
69848;BME280;57143;55.940;37.496;2024-03-02T07:12:38;100837.84;;;2.46;100.00
69848;BME280;57143;55.940;37.496;2024-03-02T07:15:06;100819.47;;;2.12;100.00
69848;BME280;57143;55.940;37.496;2024-03-02T07:18:03;100824.44;;;2.26;100.00
69848;BME280;57143;55.940;37.496;2024-03-02T07:20:31;100842.78;;;2.41;100.00
69848;BME280;57143;55.940;37.496;2024-03-02T07:22:58;100844.34;;;2.43;100.00
69848;BME280;57143;55.940;37.496;2024-03-02T07:25:25;100827.09;;;2.26;100.00
69848;BME280;57143;55.940;37.496;2024-03-02T07:27:55;100847.16;;;2.42;100.00
69848;BME280;57143;55.940;37.496;2024-03-02T07:30:22;100814.44;;;2.19;100.00
69848;BME280;57143;55.940;37.496;2024-03-02T07:32:50;100842.91;;;2.29;100.00
69848;BME280;57143;55.940;37.496;2024-03-02T07:35:17;100814.97;;;2.13;100.00
69848;BME280;57143;55.940;37.496;2024-03-02T07:37:45;100824.72;;;2.33;100.00
69848;BME280;57143;55.940;37.496;2024-03-02T07:40:13;100828.28;;;2.43;100.00
69848;BME280;57143;55.940;37.496;2024-03-02T07:42:40;100763.03;;;2.06;100.00
69848;BME280;57143;55.940;37.496;2024-03-02T07:45:10;100837.47;;;2.60;100.00
69848;BME280;57143;55.940;37.496;2024-03-02T07:47:37;100787.56;;;2.30;100.00
69848;BME280;57143;55.940;37.496;2024-03-02T07:50:05;100800.97;;;2.40;100.00
69848;BME280;57143;55.940;37.496;2024-03-02T07:52:33;100823.34;;;2.38;100.00
69848;BME280;57143;55.940;37.496;2024-03-02T07:55:01;100800.66;;;2.33;100.00
69848;BME280;57143;55.940;37.496;2024-03-02T07:57:29;100774.91;;;2.32;100.00
69848;BME280;57143;55.940;37.496;2024-03-02T07:59:57;100834.06;;;2.58;100.00
69848;BME280;57143;55.940;37.496;2024-03-02T08:05:12;100764.22;;;2.42;100.00
69848;BME280;57143;55.940;37.496;2024-03-02T08:07:40;100834.78;;;2.79;100.00
69848;BME280;57143;55.940;37.496;2024-03-02T08:10:08;100822.38;;;2.68;100.00
69848;BME280;57143;55.940;37.496;2024-03-02T08:12:36;100807.72;;;2.63;100.00
69848;BME280;57143;55.940;37.496;2024-03-02T08:15:04;100827.19;;;2.74;100.00
69848;BME280;57143;55.940;37.496;2024-03-02T08:17:36;100840.16;;;2.79;100.00
69848;BME280;57143;55.940;37.496;2024-03-02T08:20:04;100842.41;;;2.83;100.00
69848;BME280;57143;55.940;37.496;2024-03-02T08:22:33;100841.25;;;2.76;100.00
69848;BME280;57143;55.940;37.496;2024-03-02T08:25:01;100850.59;;;2.91;100.00
69848;BME280;57143;55.940;37.496;2024-03-02T08:27:30;100855.81;;;2.93;100.00
69848;BME280;57143;55.940;37.496;2024-03-02T08:29:58;100847.63;;;2.94;100.00
69848;BME280;57143;55.940;37.496;2024-03-02T08:32:26;100859.59;;;2.90;100.00
69848;BME280;57143;55.940;37.496;2024-03-02T08:34:55;100863.41;;;2.88;100.00
69848;BME280;57143;55.940;37.496;2024-03-02T08:37:22;100864.66;;;2.84;100.00
69848;BME280;57143;55.940;37.496;2024-03-02T08:39:50;100867.78;;;2.89;100.00
69848;BME280;57143;55.940;37.496;2024-03-02T08:42:17;100865.81;;;2.91;100.00
69848;BME280;57143;55.940;37.496;2024-03-02T08:44:45;100863.41;;;2.97;100.00
69848;BME280;57143;55.940;37.496;2024-03-02T08:49:59;100871.59;;;3.05;100.00
69848;BME280;57143;55.940;37.496;2024-03-02T08:52:27;100876.66;;;2.89;100.00
69848;BME280;57143;55.940;37.496;2024-03-02T08:54:54;100868.47;;;3.10;100.00
69848;BME280;57143;55.940;37.496;2024-03-02T08:57:22;100847.34;;;3.07;100.00
69848;BME280;57143;55.940;37.496;2024-03-02T08:59:49;100868.19;;;3.22;100.00
69848;BME280;57143;55.940;37.496;2024-03-02T09:02:17;100872.28;;;3.17;100.00
69848;BME280;57143;55.940;37.496;2024-03-02T09:04:44;100878.50;;;3.17;100.00
69848;BME280;57143;55.940;37.496;2024-03-02T09:07:13;100857.34;;;3.24;100.00
69848;BME280;57143;55.940;37.496;2024-03-02T09:09:41;100878.75;;;3.33;100.00
69848;BME280;57143;55.940;37.496;2024-03-02T09:12:08;100865.34;;;3.43;100.00
69848;BME280;57143;55.940;37.496;2024-03-02T09:14:37;100867.19;;;3.42;100.00
69848;BME280;57143;55.940;37.496;2024-03-02T09:17:04;100866.19;;;3.43;100.00
69848;BME280;57143;55.940;37.496;2024-03-02T09:19:31;100868.91;;;3.24;100.00
69848;BME280;57143;55.940;37.496;2024-03-02T09:21:59;100871.59;;;3.24;100.00
69848;BME280;57143;55.940;37.496;2024-03-02T09:24:30;100866.09;;;3.26;100.00
69848;BME280;57143;55.940;37.496;2024-03-02T09:26:58;100879.03;;;3.30;100.00
69848;BME280;57143;55.940;37.496;2024-03-02T09:29:43;100864.78;;;3.30;100.00
69848;BME280;57143;55.940;37.496;2024-03-02T09:32:13;100870.72;;;3.33;100.00
69848;BME280;57143;55.940;37.496;2024-03-02T09:34:40;100851.16;;;3.14;100.00
69848;BME280;57143;55.940;37.496;2024-03-02T09:37:07;100873.84;;;3.29;100.00
69848;BME280;57143;55.940;37.496;2024-03-02T09:39:36;100864.09;;;3.18;100.00
69848;BME280;57143;55.940;37.496;2024-03-02T09:42:04;100863.69;;;3.13;100.00
69848;BME280;57143;55.940;37.496;2024-03-02T09:44:33;100863.41;;;3.16;100.00
69848;BME280;57143;55.940;37.496;2024-03-02T09:47:00;100865.22;;;3.16;100.00
69848;BME280;57143;55.940;37.496;2024-03-02T09:49:28;100876.50;;;3.29;100.00
69848;BME280;57143;55.940;37.496;2024-03-02T09:51:56;100865.22;;;3.44;100.00
69848;BME280;57143;55.940;37.496;2024-03-02T09:54:24;100857.59;;;3.49;100.00
69848;BME280;57143;55.940;37.496;2024-03-02T09:56:52;100862.63;;;3.62;100.00
69848;BME280;57143;55.940;37.496;2024-03-02T09:59:20;100875.47;;;3.59;100.00
69848;BME280;57143;55.940;37.496;2024-03-02T10:01:57;100873.94;;;3.56;100.00
69848;BME280;57143;55.940;37.496;2024-03-02T10:04:26;100880.84;;;3.59;100.00
69848;BME280;57143;55.940;37.496;2024-03-02T10:07:09;100879.00;;;3.59;100.00
69848;BME280;57143;55.940;37.496;2024-03-02T10:09:38;100884.22;;;3.61;100.00
69848;BME280;57143;55.940;37.496;2024-03-02T10:12:08;100889.44;;;3.52;100.00
69848;BME280;57143;55.940;37.496;2024-03-02T10:14:35;100884.66;;;3.56;100.00
69848;BME280;57143;55.940;37.496;2024-03-02T10:17:04;100886.16;;;3.78;100.00
69848;BME280;57143;55.940;37.496;2024-03-02T10:19:32;100876.41;;;3.86;100.00
69848;BME280;57143;55.940;37.496;2024-03-02T10:22:02;100877.56;;;3.65;100.00
69848;BME280;57143;55.940;37.496;2024-03-02T10:24:36;100887.53;;;3.82;100.00
69848;BME280;57143;55.940;37.496;2024-03-02T10:27:09;100894.56;;;3.92;100.00
69848;BME280;57143;55.940;37.496;2024-03-02T10:29:38;100914.91;;;3.95;100.00
69848;BME280;57143;55.940;37.496;2024-03-02T10:32:09;100915.88;;;3.94;100.00
69848;BME280;57143;55.940;37.496;2024-03-02T10:34:36;100909.50;;;4.04;100.00
69848;BME280;57143;55.940;37.496;2024-03-02T10:37:05;100902.00;;;4.08;100.00
69848;BME280;57143;55.940;37.496;2024-03-02T10:39:34;100931.09;;;4.03;100.00
69848;BME280;57143;55.940;37.496;2024-03-02T10:42:03;100921.94;;;4.05;100.00
69848;BME280;57143;55.940;37.496;2024-03-02T10:44:33;100929.13;;;4.05;100.00
69848;BME280;57143;55.940;37.496;2024-03-02T10:47:02;100929.88;;;3.88;100.00
69848;BME280;57143;55.940;37.496;2024-03-02T10:49:31;100902.25;;;3.78;100.00
69848;BME280;57143;55.940;37.496;2024-03-02T10:51:58;100920.44;;;3.84;100.00
69848;BME280;57143;55.940;37.496;2024-03-02T10:54:27;100917.72;;;3.93;100.00
69848;BME280;57143;55.940;37.496;2024-03-02T10:56:59;100903.06;;;3.88;100.00
69848;BME280;57143;55.940;37.496;2024-03-02T10:59:28;100906.06;;;3.75;100.00
69848;BME280;57143;55.940;37.496;2024-03-02T11:01:59;100922.69;;;3.88;100.00
69848;BME280;57143;55.940;37.496;2024-03-02T11:04:28;100904.22;;;3.76;100.00
69848;BME280;57143;55.940;37.496;2024-03-02T11:07:02;100915.63;;;3.87;100.00
69848;BME280;57143;55.940;37.496;2024-03-02T11:09:33;100917.28;;;3.98;100.00
69848;BME280;57143;55.940;37.496;2024-03-02T11:12:03;100835.72;;;3.35;100.00
69848;BME280;57143;55.940;37.496;2024-03-02T11:14:32;100906.91;;;3.66;100.00
69848;BME280;57143;55.940;37.496;2024-03-02T11:17:03;100919.75;;;3.72;100.00
69848;BME280;57143;55.940;37.496;2024-03-02T11:19:31;100919.91;;;3.71;100.00
69848;BME280;57143;55.940;37.496;2024-03-02T11:22:00;100927.25;;;3.69;100.00
69848;BME280;57143;55.940;37.496;2024-03-02T11:24:30;100909.19;;;3.61;100.00
69848;BME280;57143;55.940;37.496;2024-03-02T11:27:00;100909.75;;;3.65;100.00
69848;BME280;57143;55.940;37.496;2024-03-02T11:29:44;100900.59;;;3.48;100.00
69848;BME280;57143;55.940;37.496;2024-03-02T11:32:21;100886.53;;;3.27;100.00
69848;BME280;57143;55.940;37.496;2024-03-02T11:34:50;100914.41;;;3.43;100.00
69848;BME280;57143;55.940;37.496;2024-03-02T11:37:19;100902.59;;;3.46;100.00
69848;BME280;57143;55.940;37.496;2024-03-02T11:39:49;100893.84;;;3.44;100.00
69848;BME280;57143;55.940;37.496;2024-03-02T11:42:17;100886.75;;;3.52;100.00
69848;BME280;57143;55.940;37.496;2024-03-02T11:44:46;100860.41;;;3.48;100.00
69848;BME280;57143;55.940;37.496;2024-03-02T11:47:15;100869.22;;;3.68;100.00
69848;BME280;57143;55.940;37.496;2024-03-02T11:49:46;100892.78;;;3.74;100.00
69848;BME280;57143;55.940;37.496;2024-03-02T11:52:14;100892.78;;;3.74;100.00
69848;BME280;57143;55.940;37.496;2024-03-02T11:54:43;100894.06;;;3.79;100.00
69848;BME280;57143;55.940;37.496;2024-03-02T11:57:15;100898.19;;;3.64;100.00
69848;BME280;57143;55.940;37.496;2024-03-02T11:59:43;100886.47;;;3.55;100.00
69848;BME280;57143;55.940;37.496;2024-03-02T12:02:15;100903.09;;;3.59;100.00
69848;BME280;57143;55.940;37.496;2024-03-02T12:04:46;100898.59;;;3.60;100.00
69848;BME280;57143;55.940;37.496;2024-03-02T12:07:19;100898.19;;;3.64;100.00
69848;BME280;57143;55.940;37.496;2024-03-02T12:09:48;100882.81;;;3.57;100.00
69848;BME280;57143;55.940;37.496;2024-03-02T12:12:15;100895.94;;;3.60;100.00
69848;BME280;57143;55.940;37.496;2024-03-02T12:14:51;100902.00;;;3.62;100.00
69848;BME280;57143;55.940;37.496;2024-03-02T12:17:19;100909.88;;;3.63;100.00
69848;BME280;57143;55.940;37.496;2024-03-02T12:19:48;100913.56;;;3.52;100.00
69848;BME280;57143;55.940;37.496;2024-03-02T12:22:15;100908.06;;;3.54;100.00
69848;BME280;57143;55.940;37.496;2024-03-02T12:24:45;100871.31;;;3.27;100.00
69848;BME280;57143;55.940;37.496;2024-03-02T12:27:12;100914.72;;;3.50;100.00
69848;BME280;57143;55.940;37.496;2024-03-02T12:29:40;100923.31;;;3.44;100.00
69848;BME280;57143;55.940;37.496;2024-03-02T12:32:08;100917.97;;;3.34;100.00
69848;BME280;57143;55.940;37.496;2024-03-02T12:34:35;100918.94;;;3.43;100.00
69848;BME280;57143;55.940;37.496;2024-03-02T12:37:06;100916.13;;;3.44;100.00
69848;BME280;57143;55.940;37.496;2024-03-02T12:39:33;100909.22;;;3.51;100.00
69848;BME280;57143;55.940;37.496;2024-03-02T12:42:02;100915.41;;;3.62;100.00
69848;BME280;57143;55.940;37.496;2024-03-02T12:44:30;100915.53;;;3.60;100.00
69848;BME280;57143;55.940;37.496;2024-03-02T12:46:57;100902.00;;;3.62;100.00
69848;BME280;57143;55.940;37.496;2024-03-02T12:49:24;100901.72;;;3.55;100.00
69848;BME280;57143;55.940;37.496;2024-03-02T12:51:53;100920.19;;;3.58;100.00
69848;BME280;57143;55.940;37.496;2024-03-02T12:54:22;100905.13;;;3.38;100.00